createdAt,value
2018-02-20T00:00:32.335Z,98428.51
2018-02-20T00:02:59.821Z,98429.09
2018-02-20T00:05:27.339Z,98422.06
2018-02-20T00:07:54.835Z,98425.81
2018-02-20T00:10:22.362Z,98423.19
2018-02-20T00:12:49.847Z,98417.59
2018-02-20T00:15:17.356Z,98419.86
2018-02-20T00:17:44.851Z,98414.64
2018-02-20T00:20:12.372Z,98420.33
2018-02-20T00:22:39.881Z,98411.80
2018-02-20T00:25:07.407Z,98409.33
2018-02-20T00:27:34.891Z,98415.59
2018-02-20T00:30:02.385Z,98412.53
2018-02-20T00:32:29.963Z,98408.90
2018-02-20T00:34:57.464Z,98411.90
2018-02-20T00:37:24.980Z,98410.69
2018-02-20T00:39:52.516Z,98407.67
2018-02-20T00:42:20.032Z,98409.01
2018-02-20T00:44:47.520Z,98406.73
2018-02-20T00:47:15.031Z,98400.63
2018-02-20T00:49:42.537Z,98400.09
2018-02-20T00:54:38.115Z,98404.05
2018-02-20T00:57:05.640Z,98404.21
2018-02-20T00:59:33.191Z,98402.25
2018-02-20T01:02:00.701Z,98406.52
2018-02-20T01:04:28.222Z,98406.95
2018-02-20T01:06:55.735Z,98393.13
2018-02-20T01:09:23.232Z,98391.60
2018-02-20T01:11:50.739Z,98385.92
2018-02-20T01:14:18.227Z,98387.44
2018-02-20T01:16:45.742Z,98382.59
2018-02-20T01:19:13.244Z,98379.53
2018-02-20T01:21:40.759Z,98379.42
2018-02-20T01:24:08.259Z,98382.39
2018-02-20T01:26:35.771Z,98385.50
2018-02-20T01:29:03.277Z,98389.56
2018-02-20T01:31:30.835Z,98386.81
2018-02-20T01:33:58.336Z,98387.02
2018-02-20T01:36:25.848Z,98382.80
2018-02-20T01:38:53.334Z,98386.02
2018-02-20T01:41:20.842Z,98382.77
2018-02-20T01:43:48.333Z,98386.06
2018-02-20T01:46:15.839Z,98380.75
2018-02-20T01:48:43.334Z,98376.75
2018-02-20T01:51:10.840Z,98370.67
2018-02-20T01:53:38.328Z,98374.20
2018-02-20T01:56:05.859Z,98371.52
2018-02-20T01:58:33.368Z,98368.89
2018-02-20T02:01:00.859Z,98359.93
2018-02-20T02:03:28.368Z,98357.72
2018-02-20T02:05:55.867Z,98364.36
2018-02-20T02:08:24.347Z,98355.40
2018-02-20T02:10:51.850Z,98354.67
2018-02-20T02:13:19.367Z,98351.30
2018-02-20T02:15:46.863Z,98352.71
2018-02-20T02:18:14.383Z,98351.92
2018-02-20T02:20:41.888Z,98353.09
2018-02-20T02:23:09.399Z,98359.20
2018-02-20T02:25:36.887Z,98355.34
2018-02-20T02:28:04.404Z,98355.25
2018-02-20T02:30:31.893Z,98351.56
2018-02-20T02:32:59.408Z,98352.77
2018-02-20T02:35:26.908Z,98349.66
2018-02-20T02:37:58.660Z,98353.62
2018-02-20T02:40:26.185Z,98352.61
2018-02-20T02:42:53.696Z,98357.83
2018-02-20T02:45:21.184Z,98359.56
2018-02-20T02:47:48.700Z,98359.52
2018-02-20T02:50:16.192Z,98355.45
2018-02-20T02:52:43.725Z,98357.45
2018-02-20T02:55:11.211Z,98350.80
2018-02-20T02:57:38.716Z,98351.24
2018-02-20T03:00:06.200Z,98347.55
2018-02-20T03:02:33.722Z,98353.50
2018-02-20T03:05:01.220Z,98344.38
2018-02-20T03:07:28.763Z,98342.62
2018-02-20T03:09:56.252Z,98343.81
2018-02-20T03:12:23.816Z,98341.95
2018-02-20T03:14:51.364Z,98340.27
2018-02-20T03:17:18.895Z,98339.76
2018-02-20T03:19:46.379Z,98340.59
2018-02-20T03:22:13.909Z,98339.44
2018-02-20T03:24:41.408Z,98340.73
2018-02-20T03:27:09.934Z,98340.80
2018-02-20T03:29:37.418Z,98336.58
2018-02-20T03:32:04.916Z,98343.49
2018-02-20T03:34:32.433Z,98347.02
2018-02-20T03:36:59.923Z,98340.02
2018-02-20T03:39:27.441Z,98341.69
2018-02-20T03:41:54.928Z,98339.21
2018-02-20T03:44:22.446Z,98344.44
2018-02-20T03:46:49.939Z,98343.05
2018-02-20T03:49:17.467Z,98350.97
2018-02-20T03:51:44.973Z,98342.86
2018-02-20T03:54:12.503Z,98345.00
2018-02-20T03:56:39.991Z,98340.63
2018-02-20T03:59:07.508Z,98339.27
2018-02-20T04:01:34.999Z,98338.91
2018-02-20T04:04:02.523Z,98338.53
2018-02-20T04:06:30.024Z,98336.70
2018-02-20T04:08:57.547Z,98331.95
2018-02-20T04:11:25.032Z,98328.89
2018-02-20T04:13:52.596Z,98330.16
2018-02-20T04:16:20.191Z,98330.80
2018-02-20T04:18:47.695Z,98339.59
2018-02-20T04:21:15.187Z,98334.84
2018-02-20T04:23:42.699Z,98341.00
2018-02-20T04:26:10.195Z,98340.10
2018-02-20T04:28:37.730Z,98336.06
2018-02-20T04:31:05.222Z,98342.62
2018-02-20T04:33:32.734Z,98348.13
2018-02-20T04:36:00.502Z,98343.54
2018-02-20T04:38:28.060Z,98338.69
2018-02-20T04:40:55.553Z,98335.73
2018-02-20T04:43:23.075Z,98336.69
2018-02-20T04:45:50.575Z,98338.58
2018-02-20T04:48:18.087Z,98333.69
2018-02-20T04:50:45.582Z,98339.05
2018-02-20T04:53:13.116Z,98332.37
2018-02-20T04:55:40.615Z,98333.37
2018-02-20T04:58:08.124Z,98333.84
2018-02-20T05:00:35.615Z,98330.03
2018-02-20T05:03:03.129Z,98333.09
2018-02-20T05:05:30.650Z,98334.30
2018-02-20T05:07:58.144Z,98329.95
2018-02-20T05:10:25.663Z,98334.00
2018-02-20T05:12:53.192Z,98329.63
2018-02-20T05:15:20.744Z,98340.27
2018-02-20T05:17:48.235Z,98342.41
2018-02-20T05:20:15.760Z,98345.94
2018-02-20T05:22:43.327Z,98345.98
2018-02-20T05:25:10.880Z,98348.83
2018-02-20T05:27:38.379Z,98341.83
2018-02-20T05:30:05.912Z,98348.52
2018-02-20T05:32:33.420Z,98346.77
2018-02-20T05:35:01.020Z,98342.81
2018-02-20T05:37:28.520Z,98339.77
2018-02-20T05:39:56.040Z,98335.49
2018-02-20T05:42:24.143Z,98337.03
2018-02-20T05:44:51.772Z,98339.14
2018-02-20T05:47:19.327Z,98331.34
2018-02-20T05:49:46.904Z,98337.41
2018-02-20T05:52:14.452Z,98344.03
2018-02-20T05:54:41.968Z,98341.83
2018-02-20T05:57:09.485Z,98343.16
2018-02-20T05:59:37.002Z,98340.09
2018-02-20T06:02:04.505Z,98343.66
2018-02-20T06:04:32.036Z,98336.67
2018-02-20T06:06:59.628Z,98338.50
2018-02-20T06:09:27.240Z,98342.61
2018-02-20T06:11:54.733Z,98340.24
2018-02-20T06:14:22.430Z,98339.63
2018-02-20T06:16:49.946Z,98340.30
2018-02-20T06:19:17.464Z,98342.94
2018-02-20T06:21:44.960Z,98346.08
2018-02-20T06:24:12.615Z,98342.45
2018-02-20T06:26:40.197Z,98343.58
2018-02-20T06:29:07.715Z,98349.25
2018-02-20T06:31:35.209Z,98342.34
2018-02-20T06:34:02.769Z,98348.41
2018-02-20T06:36:30.322Z,98348.50
2018-02-20T06:38:57.895Z,98349.08
2018-02-20T06:41:25.384Z,98351.71
2018-02-20T06:43:52.926Z,98353.77
2018-02-20T06:46:20.560Z,98354.09
2018-02-20T06:48:48.060Z,98350.89
2018-02-20T06:51:15.679Z,98352.90
2018-02-20T06:53:43.167Z,98360.27
2018-02-20T06:56:10.727Z,98365.71
2018-02-20T06:58:38.227Z,98363.44
2018-02-20T07:01:05.767Z,98357.28
2018-02-20T07:03:33.275Z,98356.66
2018-02-20T07:06:00.840Z,98364.13
2018-02-20T07:08:28.336Z,98361.70
2018-02-20T07:10:56.755Z,98361.89
2018-02-20T07:13:24.243Z,98360.03
2018-02-20T07:15:51.756Z,98364.52
2018-02-20T07:18:19.348Z,98362.94
2018-02-20T07:20:46.867Z,98366.68
2018-02-20T07:23:14.468Z,98360.83
2018-02-20T07:25:41.983Z,98362.94
2018-02-20T07:28:09.480Z,98363.50
2018-02-20T07:30:36.987Z,98364.56
2018-02-20T07:33:04.505Z,98370.73
2018-02-20T07:35:32.020Z,98373.78
2018-02-20T07:37:59.507Z,98376.83
2018-02-20T07:40:27.179Z,98374.73
2018-02-20T07:42:54.739Z,98369.23
2018-02-20T07:45:23.211Z,98367.23
2018-02-20T07:47:50.764Z,98370.13
2018-02-20T07:50:18.335Z,98372.84
2018-02-20T07:52:45.860Z,98368.26
2018-02-20T07:55:13.373Z,98371.53
2018-02-20T07:57:40.870Z,98369.66
2018-02-20T08:00:08.394Z,98374.98
2018-02-20T08:02:35.885Z,98381.42
2018-02-20T08:05:03.410Z,98374.09
2018-02-20T08:07:30.905Z,98368.41
2018-02-20T08:09:58.415Z,98373.80
2018-02-20T08:12:25.973Z,98375.07
2018-02-20T08:14:53.503Z,98371.72
2018-02-20T08:17:21.028Z,98372.92
2018-02-20T08:19:48.549Z,98375.16
2018-02-20T08:22:16.119Z,98377.13
2018-02-20T08:24:43.612Z,98371.79
2018-02-20T08:27:11.192Z,98370.52
2018-02-20T08:29:38.686Z,98374.53
2018-02-20T08:32:06.207Z,98367.67
2018-02-20T08:34:33.704Z,98367.42
2018-02-20T08:37:01.260Z,98373.69
2018-02-20T08:39:28.787Z,98372.80
2018-02-20T08:41:56.375Z,98370.09
2018-02-20T08:44:23.939Z,98368.80
2018-02-20T08:46:51.472Z,98366.04
2018-02-20T08:49:19.059Z,98368.58
2018-02-20T08:51:46.841Z,98365.94
2018-02-20T08:54:14.332Z,98371.92
2018-02-20T08:56:41.840Z,98375.71
2018-02-20T08:59:09.351Z,98362.25
2018-02-20T09:01:36.891Z,98364.47
2018-02-20T09:04:04.424Z,98367.08
2018-02-20T09:06:31.940Z,98357.34
2018-02-20T09:08:59.432Z,98367.33
2018-02-20T09:11:26.941Z,98364.97
2018-02-20T09:13:54.435Z,98362.35
2018-02-20T09:16:21.984Z,98360.33
2018-02-20T09:18:49.671Z,98359.13
2018-02-20T09:21:17.184Z,98355.70
2018-02-20T09:23:44.691Z,98358.14
2018-02-20T09:26:12.199Z,98355.94
2018-02-20T09:28:39.688Z,98355.58
2018-02-20T09:31:07.262Z,98350.62
2018-02-20T09:33:34.748Z,98357.06
2018-02-20T09:36:02.276Z,98353.15
2018-02-20T09:38:29.857Z,98356.17
2018-02-20T09:40:57.404Z,98358.28
2018-02-20T09:43:24.963Z,98357.44
2018-02-20T09:45:52.510Z,98362.12
2018-02-20T09:48:20.000Z,98355.94
2018-02-20T09:50:47.493Z,98354.30
2018-02-20T09:53:15.003Z,98361.84
2018-02-20T09:55:42.491Z,98358.34
2018-02-20T09:58:10.135Z,98368.78
2018-02-20T10:00:37.692Z,98366.35
2018-02-20T10:03:05.264Z,98357.83
2018-02-20T10:05:32.759Z,98366.33
2018-02-20T10:08:00.324Z,98362.28
2018-02-20T10:10:27.920Z,98365.39
2018-02-20T10:12:55.432Z,98363.68
2018-02-20T10:15:22.936Z,98363.86
2018-02-20T10:17:50.495Z,98369.20
2018-02-20T10:20:18.018Z,98370.05
2018-02-20T10:22:45.620Z,98365.45
2018-02-20T10:25:13.107Z,98367.32
2018-02-20T10:27:40.615Z,98364.99
2018-02-20T10:30:08.104Z,98364.59
2018-02-20T10:32:35.644Z,98359.61
2018-02-20T10:35:03.135Z,98370.95
2018-02-20T10:37:30.666Z,98367.22
2018-02-20T10:39:58.152Z,98368.06
2018-02-20T10:42:25.671Z,98371.25
2018-02-20T10:44:53.175Z,98370.09
2018-02-20T10:47:20.698Z,98370.00
2018-02-20T10:49:48.195Z,98370.20
2018-02-20T10:52:15.733Z,98368.97
2018-02-20T10:54:43.277Z,98368.30
2018-02-20T10:57:10.793Z,98367.23
2018-02-20T10:59:38.291Z,98357.61
2018-02-20T11:02:05.803Z,98361.02
2018-02-20T11:04:33.304Z,98360.59
2018-02-20T11:07:01.687Z,98353.67
2018-02-20T11:09:29.225Z,98350.67
2018-02-20T11:11:56.731Z,98353.41
2018-02-20T11:14:24.276Z,98354.27
2018-02-20T11:16:51.973Z,98358.42
2018-02-20T11:19:19.347Z,98358.38
2018-02-20T11:21:46.843Z,98360.30
2018-02-20T11:24:14.355Z,98360.76
2018-02-20T11:26:41.867Z,98363.37
2018-02-20T11:29:09.410Z,98361.57
2018-02-20T11:31:36.975Z,98362.41
2018-02-20T11:34:04.543Z,98364.66
2018-02-20T11:36:32.108Z,98365.78
2018-02-20T11:38:59.624Z,98368.56
2018-02-20T11:41:27.118Z,98359.50
2018-02-20T11:43:54.636Z,98360.39
2018-02-20T11:46:23.159Z,98367.10
2018-02-20T11:48:50.718Z,98367.69
2018-02-20T11:51:18.209Z,98365.39
2018-02-20T11:53:45.735Z,98353.75
2018-02-20T11:56:13.228Z,98355.25
2018-02-20T11:58:40.750Z,98356.90
2018-02-20T12:01:08.239Z,98361.80
2018-02-20T12:03:35.872Z,98359.77
2018-02-20T12:06:03.368Z,98357.48
2018-02-20T12:08:30.888Z,98356.45
2018-02-20T12:10:58.396Z,98363.15
2018-02-20T12:13:25.948Z,98360.00
2018-02-20T12:15:53.442Z,98356.22
2018-02-20T12:18:21.029Z,98356.03
2018-02-20T12:20:48.515Z,98352.70
2018-02-20T12:23:16.045Z,98349.67
2018-02-20T12:25:43.703Z,98351.50
2018-02-20T12:28:11.220Z,98343.88
2018-02-20T12:30:38.708Z,98345.51
2018-02-20T12:33:06.263Z,98348.38
2018-02-20T12:35:33.751Z,98347.71
2018-02-20T12:38:01.267Z,98345.81
2018-02-20T12:40:28.764Z,98344.78
2018-02-20T12:42:56.285Z,98343.12
2018-02-20T12:45:23.775Z,98345.99
2018-02-20T12:47:51.291Z,98356.80
2018-02-20T12:50:18.790Z,98355.46
2018-02-20T12:52:46.357Z,98357.95
2018-02-20T12:55:13.912Z,98367.94
2018-02-20T12:57:41.404Z,98370.48
2018-02-20T13:00:08.931Z,98367.22
2018-02-20T13:02:36.423Z,98376.87
2018-02-20T13:05:03.964Z,98371.59
2018-02-20T13:07:31.504Z,98370.66
2018-02-20T13:09:59.063Z,98370.73
2018-02-20T13:12:26.627Z,98370.75
2018-02-20T13:14:54.148Z,98374.95
2018-02-20T13:17:21.640Z,98375.48
2018-02-20T13:19:49.206Z,98373.05
2018-02-20T13:22:16.758Z,98372.06
2018-02-20T13:24:44.272Z,98369.52
2018-02-20T13:27:11.760Z,98369.95
2018-02-20T13:29:39.271Z,98368.66
2018-02-20T13:32:06.760Z,98369.91
2018-02-20T13:34:34.355Z,98368.68
2018-02-20T13:37:01.911Z,98367.91
2018-02-20T13:39:29.427Z,98365.19
2018-02-20T13:41:57.057Z,98362.87
2018-02-20T13:44:24.580Z,98356.48
2018-02-20T13:46:52.072Z,98354.44
2018-02-20T13:49:19.600Z,98353.34
2018-02-20T13:51:47.166Z,98357.86
2018-02-20T13:54:14.682Z,98360.15
2018-02-20T13:56:42.226Z,98357.06
2018-02-20T13:59:09.756Z,98366.03
2018-02-20T14:01:37.243Z,98359.80
2018-02-20T14:04:04.752Z,98366.25
2018-02-20T14:06:32.323Z,98364.31
2018-02-20T14:08:59.832Z,98365.81
2018-02-20T14:11:27.347Z,98367.39
2018-02-20T14:13:54.891Z,98360.27
2018-02-20T14:16:22.407Z,98362.73
2018-02-20T14:18:50.020Z,98364.74
2018-02-20T14:21:17.521Z,98356.58
2018-02-20T14:23:45.032Z,98357.77
2018-02-20T14:26:12.595Z,98362.30
2018-02-20T14:28:40.079Z,98358.77
2018-02-20T14:31:07.634Z,98355.12
2018-02-20T14:33:35.328Z,98357.08
2018-02-20T14:36:02.836Z,98364.88
2018-02-20T14:38:30.414Z,98361.11
2018-02-20T14:40:57.951Z,98353.55
2018-02-20T14:43:25.447Z,98350.23
2018-02-20T14:45:52.975Z,98352.55
2018-02-20T14:48:20.475Z,98352.47
2018-02-20T14:50:47.983Z,98350.42
2018-02-20T14:53:15.551Z,98346.52
2018-02-20T14:55:43.107Z,98345.38
2018-02-20T14:58:10.672Z,98346.66
2018-02-20T15:00:38.191Z,98349.03
2018-02-20T15:03:05.686Z,98344.84
2018-02-20T15:05:33.199Z,98343.34
2018-02-20T15:08:00.700Z,98342.68
2018-02-20T15:10:28.382Z,98343.60
2018-02-20T15:12:55.927Z,98339.25
2018-02-20T15:15:23.444Z,98334.05
2018-02-20T15:17:51.052Z,98331.66
2018-02-20T15:20:18.564Z,98328.00
2018-02-20T15:22:46.071Z,98323.21
2018-02-20T15:25:13.578Z,98315.36
2018-02-20T15:27:41.084Z,98317.11
2018-02-20T15:30:08.591Z,98310.88
2018-02-20T15:32:36.084Z,98320.66
2018-02-20T15:35:03.727Z,98312.74
2018-02-20T15:37:31.211Z,98318.53
2018-02-20T15:39:58.815Z,98315.04
2018-02-20T15:42:26.335Z,98325.04
2018-02-20T15:44:53.850Z,98327.05
2018-02-20T15:47:21.472Z,98328.73
2018-02-20T15:49:48.979Z,98331.13
2018-02-20T15:52:16.472Z,98330.54
2018-02-20T15:54:44.046Z,98322.72
2018-02-20T15:57:11.535Z,98327.13
2018-02-20T15:59:39.048Z,98328.05
2018-02-20T16:02:06.625Z,98329.95
2018-02-20T16:04:34.247Z,98340.61
2018-02-20T16:07:01.842Z,98346.36
2018-02-20T16:09:29.339Z,98347.27
2018-02-20T16:11:56.967Z,98348.47
2018-02-20T16:14:24.459Z,98346.78
2018-02-20T16:16:55.411Z,98355.80
2018-02-20T16:19:22.928Z,98357.05
2018-02-20T16:21:50.460Z,98356.65
2018-02-20T16:24:17.959Z,98359.84
2018-02-20T16:26:45.484Z,98356.02
2018-02-20T16:29:12.980Z,98370.99
2018-02-20T16:31:40.529Z,98368.15
2018-02-20T16:34:08.059Z,98381.64
2018-02-20T16:36:35.576Z,98376.36
2018-02-20T16:39:03.175Z,98385.02
2018-02-20T16:41:30.767Z,98386.01
2018-02-20T16:43:58.264Z,98383.38
2018-02-20T16:46:25.777Z,98382.59
2018-02-20T16:48:53.315Z,98391.91
2018-02-20T16:51:20.857Z,98388.07
2018-02-20T16:53:48.343Z,98395.46
2018-02-20T16:56:16.525Z,98405.53
2018-02-20T16:58:44.024Z,98403.94
2018-02-20T17:01:11.632Z,98407.42
2018-02-20T17:03:39.199Z,98405.46
2018-02-20T17:06:06.715Z,98406.84
2018-02-20T17:08:34.200Z,98410.22
2018-02-20T17:11:01.740Z,98412.37
2018-02-20T17:13:29.236Z,98425.54
2018-02-20T17:15:56.764Z,98424.13
2018-02-20T17:18:24.340Z,98435.45
2018-02-20T17:20:51.871Z,98433.30
2018-02-20T17:23:19.364Z,98435.36
2018-02-20T17:25:46.876Z,98437.77
2018-02-20T17:28:14.477Z,98445.68
2018-02-20T17:30:43.079Z,98453.31
2018-02-20T17:33:10.653Z,98452.39
2018-02-20T17:35:38.181Z,98455.77
2018-02-20T17:38:06.641Z,98456.58
2018-02-20T17:40:35.107Z,98459.16
2018-02-20T17:43:02.641Z,98467.37
2018-02-20T17:45:30.132Z,98467.37
2018-02-20T17:47:57.661Z,98474.27
2018-02-20T17:50:26.080Z,98471.58
2018-02-20T17:52:53.676Z,98472.75
2018-02-20T17:55:21.211Z,98470.48
2018-02-20T17:57:48.721Z,98472.16
2018-02-20T18:00:16.203Z,98476.68
2018-02-20T18:02:43.716Z,98476.48
2018-02-20T18:05:11.255Z,98474.42
2018-02-20T18:07:38.812Z,98479.22
2018-02-20T18:10:06.372Z,98471.73
2018-02-20T18:12:33.885Z,98476.38
2018-02-20T18:15:01.392Z,98477.17
2018-02-20T18:17:28.958Z,98478.50
2018-02-20T18:19:56.456Z,98473.12
2018-02-20T18:22:24.892Z,98474.81
2018-02-20T18:24:52.385Z,98475.28
2018-02-20T18:27:19.904Z,98476.97
2018-02-20T18:29:47.475Z,98476.87
2018-02-20T18:32:15.027Z,98481.03
2018-02-20T18:34:42.539Z,98478.28
2018-02-20T18:37:10.055Z,98477.39
2018-02-20T18:39:37.567Z,98479.30
2018-02-20T18:42:05.080Z,98482.91
2018-02-20T18:44:32.605Z,98485.87
2018-02-20T18:47:00.119Z,98479.48
2018-02-20T18:49:27.653Z,98483.50
2018-02-20T18:51:55.164Z,98484.77
2018-02-20T18:54:22.685Z,98485.70
2018-02-20T18:56:50.220Z,98489.94
2018-02-20T18:59:17.784Z,98483.77
2018-02-20T19:01:45.295Z,98487.24
2018-02-20T19:04:12.788Z,98489.82
2018-02-20T19:06:40.361Z,98489.41
2018-02-20T19:09:07.848Z,98497.11
2018-02-20T19:11:35.373Z,98494.09
2018-02-20T19:14:02.858Z,98493.31
2018-02-20T19:16:30.384Z,98494.68
2018-02-20T19:18:57.895Z,98489.52
2018-02-20T19:21:25.400Z,98491.20
2018-02-20T19:23:52.917Z,98490.49
2018-02-20T19:26:20.407Z,98486.19
2018-02-20T19:28:47.929Z,98490.33
2018-02-20T19:31:15.439Z,98492.44
2018-02-20T19:33:42.956Z,98501.70
2018-02-20T19:36:11.454Z,98501.91
2018-02-20T19:38:39.043Z,98495.59
2018-02-20T19:41:06.596Z,98491.06
2018-02-20T19:43:34.160Z,98496.19
2018-02-20T19:46:01.673Z,98498.44
2018-02-20T19:48:29.227Z,98493.48
2018-02-20T19:50:56.741Z,98491.34
2018-02-20T19:53:24.303Z,98489.53
2018-02-20T19:55:53.280Z,98490.65
2018-02-20T19:58:20.842Z,98494.84
2018-02-20T20:00:48.388Z,98491.27
2018-02-20T20:03:15.912Z,98500.18
2018-02-20T20:05:43.399Z,98494.97
2018-02-20T20:08:10.949Z,98504.41
2018-02-20T20:10:38.566Z,98504.03
2018-02-20T20:13:06.076Z,98506.73
2018-02-20T20:15:33.573Z,98506.02
2018-02-20T20:18:01.284Z,98512.25
2018-02-20T20:20:36.906Z,98514.30
2018-02-20T20:22:56.372Z,98513.41
2018-02-20T20:25:23.879Z,98512.55
2018-02-20T20:27:51.439Z,98512.73
2018-02-20T20:30:18.947Z,98511.84
2018-02-20T20:32:46.468Z,98511.34
2018-02-20T20:35:13.957Z,98517.35
2018-02-20T20:37:41.488Z,98515.39
2018-02-20T20:40:09.118Z,98513.59
2018-02-20T20:42:45.617Z,98516.18
2018-02-20T20:45:13.603Z,98514.44
2018-02-20T20:47:41.165Z,98518.81
2018-02-20T20:50:08.724Z,98515.28
2018-02-20T20:52:36.294Z,98518.44
2018-02-20T20:55:03.791Z,98522.81
2018-02-20T20:57:31.295Z,98522.02
2018-02-20T20:59:58.959Z,98522.11
2018-02-20T21:02:26.463Z,98528.03
2018-02-20T21:04:53.992Z,98521.72
2018-02-20T21:07:21.547Z,98525.04
2018-02-20T21:09:49.095Z,98524.25
2018-02-20T21:12:16.859Z,98520.62
2018-02-20T21:14:44.372Z,98530.17
2018-02-20T21:17:11.880Z,98526.69
2018-02-20T21:19:39.575Z,98526.84
2018-02-20T21:22:07.100Z,98525.58
2018-02-20T21:24:34.612Z,98522.36
2018-02-20T21:27:02.211Z,98529.75
2018-02-20T21:29:29.727Z,98524.89
2018-02-20T21:31:57.215Z,98525.56
2018-02-20T21:34:24.736Z,98528.91
2018-02-20T21:36:52.262Z,98523.59
2018-02-20T21:39:19.812Z,98522.26
2018-02-20T21:41:47.299Z,98528.02
2018-02-20T21:44:14.825Z,98522.89
2018-02-20T21:46:43.288Z,98526.89
2018-02-20T21:49:10.804Z,98527.16
2018-02-20T21:51:38.292Z,98530.31
2018-02-20T21:54:05.802Z,98522.89
2018-02-20T21:56:33.291Z,98526.94
2018-02-20T21:59:00.805Z,98524.82
2018-02-20T22:01:28.305Z,98526.23
2018-02-20T22:03:55.821Z,98523.88
2018-02-20T22:06:23.338Z,98524.11
2018-02-20T22:08:50.891Z,98527.73
2018-02-20T22:11:18.409Z,98518.12
2018-02-20T22:13:45.975Z,98522.20
2018-02-20T22:16:13.430Z,98517.20
2018-02-20T22:18:40.947Z,98522.09
2018-02-20T22:21:08.432Z,98520.08
2018-02-20T22:23:35.943Z,98529.36
2018-02-20T22:26:03.484Z,98517.81
2018-02-20T22:28:31.007Z,98521.45
2018-02-20T22:30:58.568Z,98521.23
2018-02-20T22:33:26.085Z,98520.75
2018-02-20T22:35:53.691Z,98515.39
2018-02-20T22:38:21.249Z,98513.95
2018-02-20T22:40:48.799Z,98518.34
2018-02-20T22:43:16.395Z,98518.76
2018-02-20T22:45:44.144Z,98518.02
2018-02-20T22:48:11.674Z,98521.64
2018-02-20T22:50:39.248Z,98525.75
2018-02-20T22:53:06.749Z,98524.66
2018-02-20T22:55:34.371Z,98525.52
2018-02-20T22:58:01.907Z,98525.56
2018-02-20T23:00:29.427Z,98517.77
2018-02-20T23:02:56.922Z,98515.22
2018-02-20T23:05:24.463Z,98518.62
2018-02-20T23:07:52.901Z,98519.47
2018-02-20T23:10:20.411Z,98519.62
2018-02-20T23:12:47.952Z,98522.40
2018-02-20T23:15:15.763Z,98526.88
2018-02-20T23:17:43.260Z,98524.80
2018-02-20T23:20:10.796Z,98523.20
2018-02-20T23:22:38.396Z,98521.38
2018-02-20T23:25:05.959Z,98523.58
2018-02-20T23:27:33.451Z,98520.77
2018-02-20T23:30:00.968Z,98525.28
2018-02-20T23:32:28.466Z,98523.82
2018-02-20T23:34:56.000Z,98524.39
2018-02-20T23:37:23.543Z,98522.28
2018-02-20T23:39:51.095Z,98522.84
2018-02-20T23:42:18.603Z,98525.94
2018-02-20T23:44:46.116Z,98524.95
2018-02-20T23:47:13.690Z,98517.91
2018-02-20T23:49:41.291Z,98515.27
2018-02-20T23:52:08.780Z,98525.75
2018-02-20T23:54:36.371Z,98519.22
2018-02-20T23:57:03.900Z,98509.69
2018-02-20T23:59:31.424Z,98508.97
